KALW/ALW METAR and TAF weather

Enter ICAO airport designator
Station Type Date Time Source
KALW METAR 2018/07/21 22:53 UTC NOAA

KALW 212253Z 23008KT 10SM CLR 28/01 A3002 RMK AO2 SLP159 T02830011


Station Type Date Time Source
KALW Decoded METAR 2018/07/21 22:53 UTC NOAA

WALLA WALLA REGIONAL AIRPORT, WA, United States (KALW) 46-06N 118-17W 363M
Jul 21, 2018 - 06:53 PM EDT / 2018.07.21 2253 UTC
Wind: from the SW (230 degrees) at 9 MPH (8 KT):0
Visibility: 10 mile(s):0
Sky conditions: clear
Temperature: 82.9 F (28.3 C)
Dew Point: 34.0 F (1.1 C)
Relative Humidity: 17%
Pressure (altimeter): 30.02 in. Hg (1016 hPa)
ob: KALW 212253Z 23008KT 10SM CLR 28/01 A3002 RMK AO2 SLP159 T02830011
cycle: 23

Station Type Date Time Source
KALW TAF 2018/07/21 18:22 UTC NOAA

TAF KALW 211720Z 2118/2218 21007KT P6SM SKC
FM220400 15007KT P6SM SKC
FM221400 19006KT P6SM SKC


Example: see airport list